Time,TemperatureF,DewpointF,PressureIn,WindDirection,WindDirectionDegrees,WindSpeedMPH,WindSpeedGustMPH,Humidity,HourlyPrecipIn,Conditions,Clouds,dailyrainin,SoftwareType,DateUTC
2013-07-18 00:11:00,76.0,68.0,-100.00,South,190,9.0,13.0,78,0.00,,,0.00,,2013-07-18 05:11:00,
2013-07-18 00:21:00,75.0,68.0,-100.00,South,190,8.0,11.0,79,0.00,,,0.00,,2013-07-18 05:21:00,
2013-07-18 00:32:00,75.0,68.0,-100.00,SSW,195,8.0,11.0,78,0.00,,,0.00,,2013-07-18 05:32:00,
2013-07-18 00:52:00,74.0,68.0,-100.00,South,180,7.0,10.0,80,0.00,,,0.00,,2013-07-18 05:52:00,
2013-07-18 01:01:00,74.0,68.0,-100.00,South,185,9.0,11.0,80,0.00,,,0.00,,2013-07-18 06:01:00,
2013-07-18 01:11:00,74.0,68.0,-100.00,South,185,9.0,11.0,81,0.00,,,0.00,,2013-07-18 06:11:00,
2013-07-18 01:22:00,75.0,68.0,-100.00,South,185,9.0,12.0,80,0.00,,,0.00,,2013-07-18 06:22:00,
2013-07-18 01:52:00,74.0,68.0,-100.00,South,185,9.0,12.0,80,0.00,,,0.00,,2013-07-18 06:52:00,
2013-07-18 02:01:00,74.0,68.0,-100.00,South,185,9.0,13.0,82,0.00,,,0.00,,2013-07-18 07:01:00,
2013-07-18 02:11:00,74.0,68.0,-100.00,South,175,9.0,14.0,80,0.00,,,0.00,,2013-07-18 07:11:00,
2013-07-18 02:22:00,74.0,68.0,-100.00,South,185,11.0,14.0,79,0.00,,,0.00,,2013-07-18 07:22:00,
2013-07-18 02:32:00,74.0,68.0,-100.00,South,185,9.0,14.0,80,0.00,,,0.00,,2013-07-18 07:32:00,
2013-07-18 02:52:00,75.0,68.0,-100.00,SSW,195,12.0,14.0,79,0.00,,,0.00,,2013-07-18 07:52:00,
2013-07-18 03:21:00,75.0,68.0,-100.00,South,185,11.0,17.0,80,0.00,,,0.00,,2013-07-18 08:21:00,
2013-07-18 03:32:00,75.0,68.0,-100.00,South,185,11.0,15.0,81,0.00,,,0.00,,2013-07-18 08:32:00,
2013-07-18 03:51:00,75.0,68.0,-100.00,SSW,195,12.0,16.0,81,0.00,,,0.00,,2013-07-18 08:51:00,
2013-07-18 04:01:00,74.0,68.0,-100.00,SSW,195,12.0,16.0,82,0.00,,,0.00,,2013-07-18 09:01:00,
2013-07-18 04:11:00,74.0,68.0,-100.00,SSW,195,12.0,15.0,82,0.00,,,0.00,,2013-07-18 09:11:00,
2013-07-18 04:21:00,75.0,68.0,-100.00,South,190,12.0,17.0,81,0.00,,,0.00,,2013-07-18 09:21:00,
2013-07-18 04:41:00,74.0,68.0,-100.00,South,190,12.0,17.0,83,0.00,,,0.00,,2013-07-18 09:41:00,
2013-07-18 04:51:00,74.0,68.0,-100.00,SSW,200,12.0,17.0,83,0.00,,,0.00,,2013-07-18 09:51:00,
2013-07-18 05:01:00,74.0,68.0,-100.00,SSW,195,12.0,16.0,84,0.00,,,0.00,,2013-07-18 10:01:00,
2013-07-18 05:52:00,72.0,68.0,-100.00,South,190,7.0,10.0,87,0.00,,,0.00,,2013-07-18 10:52:00,
2013-07-18 06:01:00,72.0,68.0,-100.00,SSW,195,7.0,10.0,87,0.00,,,0.00,,2013-07-18 11:01:00,
2013-07-18 06:11:00,72.0,68.0,-100.00,SSW,195,6.0,9.0,88,0.00,,,0.00,,2013-07-18 11:11:00,
2013-07-18 06:22:00,71.0,68.0,-100.00,SSW,200,5.0,8.0,88,0.00,,,0.00,,2013-07-18 11:22:00,
2013-07-18 06:43:00,72.0,68.0,-100.00,SSW,195,6.0,9.0,87,0.00,,,0.00,,2013-07-18 11:43:00,
2013-07-18 06:52:00,72.0,68.0,-100.00,SSW,195,5.0,8.0,86,0.00,,,0.00,,2013-07-18 11:52:00,
2013-07-18 07:22:00,73.0,68.0,-100.00,SSW,200,8.0,10.0,84,0.00,,,0.00,,2013-07-18 12:22:00,
2013-07-18 07:52:00,75.0,68.0,-100.00,South,185,12.0,17.0,81,0.00,,,0.00,,2013-07-18 12:52:00,
2013-07-18 08:01:00,76.0,68.0,-100.00,South,190,11.0,17.0,79,0.00,,,0.00,,2013-07-18 13:01:00,
2013-07-18 08:11:00,76.0,70.0,-100.00,South,190,11.0,16.0,78,0.00,,,0.00,,2013-07-18 13:11:00,
2013-07-18 08:22:00,77.0,70.0,-100.00,SSW,205,12.0,16.0,76,0.00,,,0.00,,2013-07-18 13:22:00,
2013-07-18 08:32:00,78.0,70.0,-100.00,SSW,210,10.0,16.0,74,0.00,,,0.00,,2013-07-18 13:32:00,
2013-07-18 09:02:00,80.0,70.0,-100.00,SW,220,14.0,18.0,69,0.00,,,0.00,,2013-07-18 14:02:00,
2013-07-18 09:22:00,81.0,68.0,-100.00,SW,225,17.0,22.0,65,0.00,,,0.00,,2013-07-18 14:22:00,
2013-07-18 09:32:00,81.0,70.0,-100.00,SW,235,12.0,19.0,66,0.00,,,0.00,,2013-07-18 14:32:00,
2013-07-18 09:52:00,82.0,68.0,-100.00,SW,235,15.0,21.0,63,0.00,,,0.00,,2013-07-18 14:52:00,
2013-07-18 10:01:00,82.0,68.0,-100.00,SW,230,16.0,20.0,62,0.00,,,0.00,,2013-07-18 15:01:00,
2013-07-18 10:11:00,83.0,70.0,-100.00,SW,225,13.0,19.0,63,0.00,,,0.00,,2013-07-18 15:11:00,
2013-07-18 10:22:00,84.0,70.0,-100.00,SW,220,15.0,17.0,61,0.00,,,0.00,,2013-07-18 15:22:00,
2013-07-18 10:42:00,84.0,70.0,-100.00,SW,230,14.0,22.0,61,0.00,,,0.00,,2013-07-18 15:42:00,
2013-07-18 10:53:00,85.0,70.0,-100.00,SW,220,15.0,19.0,60,0.00,,,0.00,,2013-07-18 15:53:00,
2013-07-18 11:01:00,85.0,70.0,-100.00,SW,230,15.0,20.0,60,0.00,,,0.00,,2013-07-18 16:01:00,
2013-07-18 11:22:00,85.0,70.0,-100.00,SW,225,17.0,24.0,58,0.00,,,0.00,,2013-07-18 16:22:00,
2013-07-18 11:32:00,86.0,72.0,-100.00,SW,225,13.0,22.0,61,0.00,,,0.00,,2013-07-18 16:32:00,
2013-07-18 11:52:00,86.0,72.0,-100.00,SW,230,16.0,22.0,59,0.00,,,0.00,,2013-07-18 16:52:00,
2013-07-18 12:11:00,87.0,70.0,-100.00,SW,235,20.0,28.0,56,0.00,,,0.00,,2013-07-18 17:11:00,
2013-07-18 12:22:00,87.0,70.0,-100.00,SW,225,17.0,24.0,56,0.00,,,0.00,,2013-07-18 17:22:00,
2013-07-18 12:33:00,88.0,70.0,-100.00,SW,220,17.0,24.0,55,0.00,,,0.00,,2013-07-18 17:33:00,
2013-07-18 12:43:00,88.0,70.0,-100.00,SW,230,19.0,26.0,55,0.00,,,0.00,,2013-07-18 17:43:00,
2013-07-18 13:01:00,88.0,68.0,-100.00,SW,215,20.0,26.0,52,0.00,,,0.00,,2013-07-18 18:01:00,
2013-07-18 13:22:00,89.0,68.0,-100.00,SW,230,20.0,26.0,51,0.00,,,0.00,,2013-07-18 18:22:00,
2013-07-18 13:32:00,89.0,68.0,-100.00,SW,215,21.0,26.0,49,0.00,,,0.00,,2013-07-18 18:32:00,
2013-07-18 13:52:00,89.0,70.0,-100.00,SW,215,18.0,27.0,51,0.00,,,0.00,,2013-07-18 18:52:00,
2013-07-18 14:01:00,90.0,70.0,-100.00,SSW,210,18.0,26.0,52,0.00,,,0.00,,2013-07-18 19:01:00,
2013-07-18 14:11:00,90.0,68.0,-100.00,SW,220,19.0,28.0,49,0.00,,,0.00,,2013-07-18 19:11:00,
2013-07-18 14:22:00,90.0,68.0,-100.00,SW,225,20.0,27.0,49,0.00,,,0.00,,2013-07-18 19:22:00,
2013-07-18 15:11:00,91.0,70.0,-100.00,SW,220,19.0,26.0,48,0.00,,,0.00,,2013-07-18 20:11:00,
2013-07-18 15:22:00,91.0,70.0,-100.00,SW,215,16.0,22.0,49,0.00,,,0.00,,2013-07-18 20:22:00,
2013-07-18 15:32:00,91.0,70.0,-100.00,SW,215,17.0,26.0,50,0.00,,,0.00,,2013-07-18 20:32:00,
2013-07-18 15:52:00,91.0,72.0,-100.00,SSW,210,16.0,23.0,51,0.00,,,0.00,,2013-07-18 20:52:00,
2013-07-18 16:01:00,91.0,70.0,-100.00,SW,220,19.0,27.0,49,0.00,,,0.00,,2013-07-18 21:01:00,
2013-07-18 16:11:00,91.0,70.0,-100.00,SW,220,18.0,26.0,49,0.00,,,0.00,,2013-07-18 21:11:00,
2013-07-18 16:22:00,91.0,70.0,-100.00,SSW,210,19.0,24.0,48,0.00,,,0.00,,2013-07-18 21:22:00,
2013-07-18 16:52:00,92.0,72.0,-100.00,SW,235,14.0,23.0,50,0.00,,,0.00,,2013-07-18 21:52:00,
2013-07-18 17:01:00,91.0,68.0,-100.00,SW,230,20.0,31.0,47,0.00,,,0.00,,2013-07-18 22:01:00,
2013-07-18 17:22:00,91.0,70.0,-100.00,SW,235,16.0,24.0,51,0.00,,,0.00,,2013-07-18 22:22:00,
2013-07-18 17:53:00,90.0,70.0,-100.00,WSW,240,20.0,25.0,51,0.00,,,0.00,,2013-07-18 22:53:00,
2013-07-18 18:02:00,90.0,70.0,-100.00,SW,225,16.0,26.0,51,0.00,,,0.00,,2013-07-18 23:02:00,
2013-07-18 18:11:00,90.0,70.0,-100.00,SW,220,17.0,24.0,51,0.00,,,0.00,,2013-07-18 23:11:00,
2013-07-18 18:22:00,90.0,70.0,-100.00,SW,230,17.0,24.0,50,0.00,,,0.00,,2013-07-18 23:22:00,
2013-07-18 18:42:00,90.0,70.0,-100.00,SW,230,15.0,23.0,52,0.00,,,0.00,,2013-07-18 23:42:00,
2013-07-18 18:52:00,89.0,70.0,-100.00,SW,225,17.0,22.0,54,0.00,,,0.00,,2013-07-18 23:52:00,
2013-07-18 19:01:00,89.0,70.0,-100.00,SW,225,19.0,24.0,53,0.00,,,0.00,,2013-07-19 00:01:00,
2013-07-18 19:22:00,88.0,70.0,-100.00,SSW,210,17.0,23.0,55,0.00,,,0.00,,2013-07-19 00:22:00,
2013-07-18 19:32:00,88.0,70.0,-100.00,SSW,210,17.0,23.0,55,0.00,,,0.00,,2013-07-19 00:32:00,
2013-07-18 20:11:00,86.0,70.0,-100.00,SW,215,13.0,17.0,58,0.00,,,0.00,,2013-07-19 01:11:00,
2013-07-18 20:22:00,85.0,70.0,-100.00,SW,215,13.0,18.0,59,0.00,,,0.00,,2013-07-19 01:22:00,
2013-07-18 20:42:00,85.0,70.0,-100.00,SSW,210,11.0,17.0,60,0.00,,,0.00,,2013-07-19 01:42:00,
2013-07-18 20:52:00,85.0,70.0,-100.00,SSW,210,13.0,17.0,60,0.00,,,0.00,,2013-07-19 01:52:00,
2013-07-18 21:42:00,81.0,68.0,-100.00,SSW,200,12.0,15.0,65,0.00,,,0.00,,2013-07-19 02:42:00,
2013-07-18 21:52:00,81.0,68.0,-100.00,SSW,210,11.0,16.0,66,0.00,,,0.00,,2013-07-19 02:52:00,
2013-07-18 22:11:00,80.0,68.0,-100.00,SSW,205,11.0,14.0,68,0.00,,,0.00,,2013-07-19 03:11:00,
2013-07-18 22:52:00,80.0,68.0,-100.00,SSW,205,12.0,15.0,69,0.00,,,0.00,,2013-07-19 03:52:00,
2013-07-18 23:12:00,80.0,68.0,-100.00,SSW,210,11.0,17.0,69,0.00,,,0.00,,2013-07-19 04:12:00,
2013-07-18 23:22:00,80.0,70.0,-100.00,SW,215,12.0,17.0,70,0.00,,,0.00,,2013-07-19 04:22:00,
2013-07-18 23:33:00,79.0,70.0,-100.00,SW,215,11.0,17.0,71,0.00,,,0.00,,2013-07-19 04:33:00,
2013-07-18 23:52:00,79.0,70.0,-100.00,SW,215,11.0,16.0,71,0.00,,,0.00,,2013-07-19 04:52:00,